Kuusiku, Estonia

2:35 AM EET on March 01, 2015 (GMT +0200)
Mikkori-Metsa, Kohila, Raplamaa | Change Station
CLOSE
Current Station
Personal Weather Station
Location: Kohila, RAPLA COUNTY
Elevation: 195 ft
Nearby Weather Stations

Elev 195 ft 59.18 °N, 24.70 °E | Updated 28 seconds ago

Partly Cloudy
Partly Cloudy
31.2 °F
Feels Like 27 °F
N
4.3
Wind Variable Wind from South
Gusts 11.5 mph

Today
High -- | Low -- °F
--% Chance of Precip.
Yesterday
High -- | Low -- °F
Precip. -- in
7:18 AM 5:49 PM
Waxing Gibbous, 81% visible
Pressure 29.92 in
Visibility 6.2 miles
Clouds Few 3100 ft
Windchill 27 °F
Dew Point 29 °F
Humidity 90%
Rainfall 0.00 in
Snow Depth Not available.
UV 0 out of 12
Pollen Not available.
Air Quality Not available.
Flu Activity Not available.
METAR EETN 010020Z 18006KT 9999 FEW031 01/M02 Q1013 R08/12//95

More Conditions Fewer Conditions

Pressure 29.92 in
Visibility 6.2 miles
Clouds Few 3100 ft
Windchill 27 °F
Dew Point 29 °F
Humidity 90%
Rainfall 0.00 in
Snow Depth Not available.
UV 0 out of 12
Pollen Not available.
Air Quality Not available.
Flu Activity Not available.
METAR EETN 010020Z 18006KT 9999 FEW031 01/M02 Q1013 R08/12//95

More Conditions Fewer Conditions

10-Day Weather Forecast

Almanac

Astronomy

Mar. 01, 2015 Rise Set
Actual Time
Civil Twilight
Nautical Twilight
Astronomical Twilight
Moon
Length of Visible Light
Length of Day
Tomorrow will be .
, % of the Moon is Illuminated

Today's Extremes

Country Highs Country Lows

Community

WunderPhotos

Upload Photos

1,801,191 photos uploaded!

WunderBlogs® & News

Nearby

Air Quality

  Air Quality AQ Index Pollutant
Not available.

Snow Depth

Station Depth Elevation

Earthquake Activity

City Distance Mag. Time & Date
Minimum magnitude displayed is 2.5.

Coastal Water Temperatures

Place Temperature

Nearby Weather Stations